Paradise, CA (95967)

12:54 AM PDT on September 02, 2015 (GMT -0700)
Bennett | | Change Station
CLOSE
Current Station
Personal Weather Station
Location: Paradise, CA
Elevation: 1568 ft
Nearby Weather Stations

Elev 1568 ft 39.74 °N, 121.60 °W | Updated 9 seconds ago

Clear
Clear
68.9 °F
Feels Like 68.9 °F
N
0.0
Wind Variable Wind from North
Gusts 0.0 mph

Today
High -- | Low -- °F
--% Chance of Precip.
Yesterday
High -- | Low -- °F
Precip. -- in
6:35 AM 7:36 PM
Waning Gibbous, 82% visible
Pressure 29.83 in
Visibility 10.0 miles
Clouds Clear
Dew Point 44 °F
Humidity 40%
Rainfall 0.00 in
Snow Depth Not available.
UV 0 out of 12
Pollen 8.40 out of 12
Air Quality Not available.
Flu Activity Not available.
METAR KOVE 020653Z AUTO 14011KT 10SM CLR 24/09 A2983 RMK AO2 SLP099 T02440094
Pressure 29.83 in
Visibility 10.0 miles
Clouds Clear
Dew Point 44 °F
Humidity 40%
Rainfall 0.00 in
Snow Depth Not available.
UV 0 out of 12
Pollen 8.40 out of 12
Air Quality Not available.
Flu Activity Not available.
METAR KOVE 020653Z AUTO 14011KT 10SM CLR 24/09 A2983 RMK AO2 SLP099 T02440094

10-Day Weather Forecast

×

Almanac

Astronomy

Sep. 02, 2015 Rise Set
Actual Time
Civil Twilight
Nautical Twilight
Astronomical Twilight
Moon
Length of Visible Light
Length of Day
Tomorrow will be .
, % of the Moon is Illuminated

Today's Extremes

State Highs State Lows

Community

WunderPhotos

Upload Photos

1,851,723 photos uploaded!

WunderBlogs® & News

Nearby

Air Quality

  Air Quality AQ Index Pollutant
Not available.

Snow Depth

Station Depth Elevation

Earthquake Activity

City Distance Mag. Time & Date
Minimum magnitude displayed is 2.5.

Coastal Water Temperatures

Place Temperature

Stations

Nearby Weather Stations

Station Location Temp. Windchill Dew Point Humidity Wind Precip. Elev Updated Type